sensor_id;sensor_type;location;lat;lon;timestamp;temperature;humidity
51035;DHT22;37062;52.546;13.230;2022-08-26T00:01:16;22.80;99.90
51035;DHT22;37062;52.546;13.230;2022-08-26T00:03:45;22.80;99.90
51035;DHT22;37062;52.546;13.230;2022-08-26T00:06:13;22.80;99.90
51035;DHT22;37062;52.546;13.230;2022-08-26T00:08:41;22.80;99.90
51035;DHT22;37062;52.546;13.230;2022-08-26T00:11:09;22.70;99.90
51035;DHT22;37062;52.546;13.230;2022-08-26T00:13:38;22.70;99.90
51035;DHT22;37062;52.546;13.230;2022-08-26T00:16:06;22.70;99.90
51035;DHT22;37062;52.546;13.230;2022-08-26T00:18:35;22.70;99.90
51035;DHT22;37062;52.546;13.230;2022-08-26T00:21:07;22.70;99.90
51035;DHT22;37062;52.546;13.230;2022-08-26T00:23:36;22.70;99.90
51035;DHT22;37062;52.546;13.230;2022-08-26T00:26:05;22.70;99.90
51035;DHT22;37062;52.546;13.230;2022-08-26T00:28:33;22.60;99.90
51035;DHT22;37062;52.546;13.230;2022-08-26T00:31:04;22.60;99.90
51035;DHT22;37062;52.546;13.230;2022-08-26T00:33:32;22.60;99.90
51035;DHT22;37062;52.546;13.230;2022-08-26T00:36:00;22.60;99.90
51035;DHT22;37062;52.546;13.230;2022-08-26T00:38:32;22.50;99.90
51035;DHT22;37062;52.546;13.230;2022-08-26T00:41:00;22.50;99.90
51035;DHT22;37062;52.546;13.230;2022-08-26T00:43:32;22.50;99.90
51035;DHT22;37062;52.546;13.230;2022-08-26T00:46:05;22.50;99.90
51035;DHT22;37062;52.546;13.230;2022-08-26T00:48:35;22.50;99.90
51035;DHT22;37062;52.546;13.230;2022-08-26T00:51:08;22.40;99.90
51035;DHT22;37062;52.546;13.230;2022-08-26T00:53:43;22.40;99.90
51035;DHT22;37062;52.546;13.230;2022-08-26T00:56:15;22.40;99.90
51035;DHT22;37062;52.546;13.230;2022-08-26T00:58:44;22.40;99.90
51035;DHT22;37062;52.546;13.230;2022-08-26T01:01:13;22.40;99.90
51035;DHT22;37062;52.546;13.230;2022-08-26T01:03:42;22.40;99.90
51035;DHT22;37062;52.546;13.230;2022-08-26T01:06:11;22.40;99.90
51035;DHT22;37062;52.546;13.230;2022-08-26T01:08:41;22.30;99.90
51035;DHT22;37062;52.546;13.230;2022-08-26T01:11:08;22.30;99.90
51035;DHT22;37062;52.546;13.230;2022-08-26T01:13:37;22.30;99.90
51035;DHT22;37062;52.546;13.230;2022-08-26T01:16:06;22.30;99.90
51035;DHT22;37062;52.546;13.230;2022-08-26T01:18:38;22.30;99.90
51035;DHT22;37062;52.546;13.230;2022-08-26T01:21:13;22.30;99.90
51035;DHT22;37062;52.546;13.230;2022-08-26T01:23:46;22.20;99.90
51035;DHT22;37062;52.546;13.230;2022-08-26T01:26:16;22.20;99.90
51035;DHT22;37062;52.546;13.230;2022-08-26T01:28:46;22.20;99.90
51035;DHT22;37062;52.546;13.230;2022-08-26T01:31:19;22.20;99.90
51035;DHT22;37062;52.546;13.230;2022-08-26T01:33:51;22.20;99.90
51035;DHT22;37062;52.546;13.230;2022-08-26T01:36:21;22.20;99.90
51035;DHT22;37062;52.546;13.230;2022-08-26T01:38:50;22.20;99.90
51035;DHT22;37062;52.546;13.230;2022-08-26T01:41:18;22.20;99.90
51035;DHT22;37062;52.546;13.230;2022-08-26T01:43:51;22.20;99.90
51035;DHT22;37062;52.546;13.230;2022-08-26T01:46:20;22.20;99.90
51035;DHT22;37062;52.546;13.230;2022-08-26T01:48:49;22.20;99.90
51035;DHT22;37062;52.546;13.230;2022-08-26T01:51:18;22.20;99.90
51035;DHT22;37062;52.546;13.230;2022-08-26T01:53:46;22.20;99.90
51035;DHT22;37062;52.546;13.230;2022-08-26T01:56:15;22.20;99.90
51035;DHT22;37062;52.546;13.230;2022-08-26T01:58:46;22.20;99.90
51035;DHT22;37062;52.546;13.230;2022-08-26T02:01:16;22.10;99.90
51035;DHT22;37062;52.546;13.230;2022-08-26T02:03:49;22.10;99.90
51035;DHT22;37062;52.546;13.230;2022-08-26T02:06:17;22.00;99.90
51035;DHT22;37062;52.546;13.230;2022-08-26T02:08:48;22.10;99.90
51035;DHT22;37062;52.546;13.230;2022-08-26T02:11:18;22.00;99.90
51035;DHT22;37062;52.546;13.230;2022-08-26T02:13:48;22.00;99.90
51035;DHT22;37062;52.546;13.230;2022-08-26T02:16:19;22.00;99.90
51035;DHT22;37062;52.546;13.230;2022-08-26T02:18:49;22.00;99.90
51035;DHT22;37062;52.546;13.230;2022-08-26T02:21:17;22.00;99.90
51035;DHT22;37062;52.546;13.230;2022-08-26T02:23:44;22.00;99.90
51035;DHT22;37062;52.546;13.230;2022-08-26T02:26:14;22.00;99.90
51035;DHT22;37062;52.546;13.230;2022-08-26T02:28:49;22.00;99.90
51035;DHT22;37062;52.546;13.230;2022-08-26T02:31:17;22.00;99.90
51035;DHT22;37062;52.546;13.230;2022-08-26T02:33:45;21.90;99.90
51035;DHT22;37062;52.546;13.230;2022-08-26T02:36:18;21.90;99.90
51035;DHT22;37062;52.546;13.230;2022-08-26T02:38:45;21.80;99.90
51035;DHT22;37062;52.546;13.230;2022-08-26T02:41:13;21.90;99.90
51035;DHT22;37062;52.546;13.230;2022-08-26T02:43:41;21.90;99.90
51035;DHT22;37062;52.546;13.230;2022-08-26T02:46:09;21.90;99.90
51035;DHT22;37062;52.546;13.230;2022-08-26T02:48:37;21.80;99.90
51035;DHT22;37062;52.546;13.230;2022-08-26T02:51:05;21.80;99.90
51035;DHT22;37062;52.546;13.230;2022-08-26T02:53:33;21.80;99.90
51035;DHT22;37062;52.546;13.230;2022-08-26T02:56:00;21.80;99.90
51035;DHT22;37062;52.546;13.230;2022-08-26T02:58:30;21.80;99.90
51035;DHT22;37062;52.546;13.230;2022-08-26T03:00:59;21.80;99.90
51035;DHT22;37062;52.546;13.230;2022-08-26T03:03:28;21.80;99.90
51035;DHT22;37062;52.546;13.230;2022-08-26T03:05:57;21.80;99.90
51035;DHT22;37062;52.546;13.230;2022-08-26T03:08:24;21.70;99.90
51035;DHT22;37062;52.546;13.230;2022-08-26T03:10:52;21.70;99.90
51035;DHT22;37062;52.546;13.230;2022-08-26T03:13:19;21.70;99.90
51035;DHT22;37062;52.546;13.230;2022-08-26T03:15:47;21.70;99.90
51035;DHT22;37062;52.546;13.230;2022-08-26T03:18:14;21.70;99.90
51035;DHT22;37062;52.546;13.230;2022-08-26T03:20:43;21.70;99.90
51035;DHT22;37062;52.546;13.230;2022-08-26T03:23:11;21.70;99.90
51035;DHT22;37062;52.546;13.230;2022-08-26T03:25:39;21.70;99.90
51035;DHT22;37062;52.546;13.230;2022-08-26T03:28:06;21.70;99.90
51035;DHT22;37062;52.546;13.230;2022-08-26T03:30:34;21.70;99.90
51035;DHT22;37062;52.546;13.230;2022-08-26T03:33:07;21.70;99.90
51035;DHT22;37062;52.546;13.230;2022-08-26T03:35:38;21.60;99.90
51035;DHT22;37062;52.546;13.230;2022-08-26T03:38:09;21.60;99.90
51035;DHT22;37062;52.546;13.230;2022-08-26T03:40:36;21.60;99.90
51035;DHT22;37062;52.546;13.230;2022-08-26T03:43:05;21.60;99.90
51035;DHT22;37062;52.546;13.230;2022-08-26T03:45:32;21.60;99.90
51035;DHT22;37062;52.546;13.230;2022-08-26T03:48:00;21.60;99.90
51035;DHT22;37062;52.546;13.230;2022-08-26T03:50:30;21.60;99.90
51035;DHT22;37062;52.546;13.230;2022-08-26T03:52:58;21.70;99.90
51035;DHT22;37062;52.546;13.230;2022-08-26T03:55:29;21.60;99.90
51035;DHT22;37062;52.546;13.230;2022-08-26T03:57:57;21.70;99.90
51035;DHT22;37062;52.546;13.230;2022-08-26T04:00:26;21.70;99.90
51035;DHT22;37062;52.546;13.230;2022-08-26T04:02:56;21.70;99.90
51035;DHT22;37062;52.546;13.230;2022-08-26T04:05:23;21.70;99.90
51035;DHT22;37062;52.546;13.230;2022-08-26T04:07:51;21.70;99.90
51035;DHT22;37062;52.546;13.230;2022-08-26T04:10:20;21.70;99.90
51035;DHT22;37062;52.546;13.230;2022-08-26T04:12:50;21.70;99.90
51035;DHT22;37062;52.546;13.230;2022-08-26T04:15:20;21.70;99.90
51035;DHT22;37062;52.546;13.230;2022-08-26T04:17:47;21.70;99.90
51035;DHT22;37062;52.546;13.230;2022-08-26T04:20:15;21.80;99.90
51035;DHT22;37062;52.546;13.230;2022-08-26T04:22:43;21.70;99.90
51035;DHT22;37062;52.546;13.230;2022-08-26T04:25:11;21.70;99.90
51035;DHT22;37062;52.546;13.230;2022-08-26T04:27:39;21.80;99.90
51035;DHT22;37062;52.546;13.230;2022-08-26T04:30:09;21.80;99.90
51035;DHT22;37062;52.546;13.230;2022-08-26T04:32:37;21.80;99.90
51035;DHT22;37062;52.546;13.230;2022-08-26T04:35:05;21.80;99.90
51035;DHT22;37062;52.546;13.230;2022-08-26T04:37:33;21.90;99.90
51035;DHT22;37062;52.546;13.230;2022-08-26T04:40:01;21.90;99.90
51035;DHT22;37062;52.546;13.230;2022-08-26T04:42:28;21.90;99.90
51035;DHT22;37062;52.546;13.230;2022-08-26T04:44:57;21.90;99.90
51035;DHT22;37062;52.546;13.230;2022-08-26T04:47:26;21.90;99.90
51035;DHT22;37062;52.546;13.230;2022-08-26T04:49:54;22.00;99.90
51035;DHT22;37062;52.546;13.230;2022-08-26T04:52:22;22.10;99.90
51035;DHT22;37062;52.546;13.230;2022-08-26T04:54:50;22.10;99.90
51035;DHT22;37062;52.546;13.230;2022-08-26T04:57:17;22.20;99.90
51035;DHT22;37062;52.546;13.230;2022-08-26T04:59:45;22.20;99.90
51035;DHT22;37062;52.546;13.230;2022-08-26T05:02:13;22.20;99.90
51035;DHT22;37062;52.546;13.230;2022-08-26T05:04:42;22.20;99.90
51035;DHT22;37062;52.546;13.230;2022-08-26T05:07:10;22.20;99.90
51035;DHT22;37062;52.546;13.230;2022-08-26T05:09:38;22.20;99.90
51035;DHT22;37062;52.546;13.230;2022-08-26T05:12:06;22.20;99.90
51035;DHT22;37062;52.546;13.230;2022-08-26T05:14:34;22.20;99.90
51035;DHT22;37062;52.546;13.230;2022-08-26T05:17:02;22.30;99.90
51035;DHT22;37062;52.546;13.230;2022-08-26T05:19:29;22.30;99.90
51035;DHT22;37062;52.546;13.230;2022-08-26T05:21:58;22.40;99.90
51035;DHT22;37062;52.546;13.230;2022-08-26T05:24:26;22.50;99.90
51035;DHT22;37062;52.546;13.230;2022-08-26T05:26:54;22.70;99.90
51035;DHT22;37062;52.546;13.230;2022-08-26T05:29:21;22.90;99.90
51035;DHT22;37062;52.546;13.230;2022-08-26T05:31:51;23.10;99.90
51035;DHT22;37062;52.546;13.230;2022-08-26T05:34:19;23.30;99.90
51035;DHT22;37062;52.546;13.230;2022-08-26T05:36:47;23.70;99.90
51035;DHT22;37062;52.546;13.230;2022-08-26T05:39:16;24.10;99.90
51035;DHT22;37062;52.546;13.230;2022-08-26T05:41:44;24.40;99.90
51035;DHT22;37062;52.546;13.230;2022-08-26T05:44:14;24.60;99.90
51035;DHT22;37062;52.546;13.230;2022-08-26T05:46:44;24.60;99.90
51035;DHT22;37062;52.546;13.230;2022-08-26T05:49:13;24.60;99.90
51035;DHT22;37062;52.546;13.230;2022-08-26T05:51:41;24.60;99.90
51035;DHT22;37062;52.546;13.230;2022-08-26T05:54:10;24.60;99.90
51035;DHT22;37062;52.546;13.230;2022-08-26T05:56:40;24.70;99.90
51035;DHT22;37062;52.546;13.230;2022-08-26T05:59:11;24.90;99.90
51035;DHT22;37062;52.546;13.230;2022-08-26T06:01:41;25.30;99.90
51035;DHT22;37062;52.546;13.230;2022-08-26T06:04:09;25.50;99.90
51035;DHT22;37062;52.546;13.230;2022-08-26T06:06:37;25.70;99.90
51035;DHT22;37062;52.546;13.230;2022-08-26T06:09:07;26.00;99.90
51035;DHT22;37062;52.546;13.230;2022-08-26T06:11:35;26.10;99.90
51035;DHT22;37062;52.546;13.230;2022-08-26T06:14:05;26.30;99.90
51035;DHT22;37062;52.546;13.230;2022-08-26T06:16:35;26.50;99.90
51035;DHT22;37062;52.546;13.230;2022-08-26T06:19:05;26.60;99.90
51035;DHT22;37062;52.546;13.230;2022-08-26T06:21:34;26.70;99.90
51035;DHT22;37062;52.546;13.230;2022-08-26T06:24:06;26.90;99.90
51035;DHT22;37062;52.546;13.230;2022-08-26T06:26:54;27.30;99.90
51035;DHT22;37062;52.546;13.230;2022-08-26T06:29:24;27.80;99.90
51035;DHT22;37062;52.546;13.230;2022-08-26T06:31:52;28.10;99.90
51035;DHT22;37062;52.546;13.230;2022-08-26T06:34:20;28.40;99.90
51035;DHT22;37062;52.546;13.230;2022-08-26T06:36:48;29.00;99.90
51035;DHT22;37062;52.546;13.230;2022-08-26T06:39:17;29.60;99.90
51035;DHT22;37062;52.546;13.230;2022-08-26T06:41:45;30.10;99.90
51035;DHT22;37062;52.546;13.230;2022-08-26T06:44:17;30.50;99.90
51035;DHT22;37062;52.546;13.230;2022-08-26T06:46:46;30.80;99.90
51035;DHT22;37062;52.546;13.230;2022-08-26T06:49:14;30.90;99.90
51035;DHT22;37062;52.546;13.230;2022-08-26T06:51:42;30.90;99.90
51035;DHT22;37062;52.546;13.230;2022-08-26T06:54:09;31.00;99.90
51035;DHT22;37062;52.546;13.230;2022-08-26T06:56:39;31.30;99.90
51035;DHT22;37062;52.546;13.230;2022-08-26T06:59:08;31.40;99.90
51035;DHT22;37062;52.546;13.230;2022-08-26T07:01:38;31.30;99.90
51035;DHT22;37062;52.546;13.230;2022-08-26T07:04:13;31.30;99.90
51035;DHT22;37062;52.546;13.230;2022-08-26T07:06:44;31.20;99.90
51035;DHT22;37062;52.546;13.230;2022-08-26T07:09:14;31.30;99.90
51035;DHT22;37062;52.546;13.230;2022-08-26T07:11:41;31.40;99.90
51035;DHT22;37062;52.546;13.230;2022-08-26T07:14:09;31.70;99.90
51035;DHT22;37062;52.546;13.230;2022-08-26T07:16:38;31.90;99.90
51035;DHT22;37062;52.546;13.230;2022-08-26T07:19:06;31.90;99.90
51035;DHT22;37062;52.546;13.230;2022-08-26T07:21:35;31.90;99.90
51035;DHT22;37062;52.546;13.230;2022-08-26T07:24:03;31.80;99.90
51035;DHT22;37062;52.546;13.230;2022-08-26T07:26:31;31.70;99.90
51035;DHT22;37062;52.546;13.230;2022-08-26T07:28:59;31.60;99.90
51035;DHT22;37062;52.546;13.230;2022-08-26T07:31:29;31.50;99.90
51035;DHT22;37062;52.546;13.230;2022-08-26T07:33:58;31.60;99.90
51035;DHT22;37062;52.546;13.230;2022-08-26T07:36:25;31.70;99.90
51035;DHT22;37062;52.546;13.230;2022-08-26T07:38:55;32.00;99.90
51035;DHT22;37062;52.546;13.230;2022-08-26T07:41:24;32.30;99.90
51035;DHT22;37062;52.546;13.230;2022-08-26T07:43:52;32.50;99.90
51035;DHT22;37062;52.546;13.230;2022-08-26T07:46:20;32.90;99.90
51035;DHT22;37062;52.546;13.230;2022-08-26T07:48:49;33.40;99.90
51035;DHT22;37062;52.546;13.230;2022-08-26T07:51:18;34.00;99.90
51035;DHT22;37062;52.546;13.230;2022-08-26T07:53:47;34.20;99.90
51035;DHT22;37062;52.546;13.230;2022-08-26T07:56:16;34.70;99.90
51035;DHT22;37062;52.546;13.230;2022-08-26T07:58:43;35.30;99.90
51035;DHT22;37062;52.546;13.230;2022-08-26T08:01:11;35.90;99.90
51035;DHT22;37062;52.546;13.230;2022-08-26T08:03:38;36.40;99.90
51035;DHT22;37062;52.546;13.230;2022-08-26T08:06:06;36.60;99.90
51035;DHT22;37062;52.546;13.230;2022-08-26T08:08:35;36.80;99.90
51035;DHT22;37062;52.546;13.230;2022-08-26T08:11:05;37.20;99.90
51035;DHT22;37062;52.546;13.230;2022-08-26T08:13:35;37.50;99.90
51035;DHT22;37062;52.546;13.230;2022-08-26T08:16:03;37.70;99.90
51035;DHT22;37062;52.546;13.230;2022-08-26T08:18:31;37.90;99.90
51035;DHT22;37062;52.546;13.230;2022-08-26T08:20:58;38.10;99.90
51035;DHT22;37062;52.546;13.230;2022-08-26T08:23:29;38.20;99.90
51035;DHT22;37062;52.546;13.230;2022-08-26T08:25:59;38.40;99.90
51035;DHT22;37062;52.546;13.230;2022-08-26T08:28:31;38.60;99.90
51035;DHT22;37062;52.546;13.230;2022-08-26T08:31:04;38.80;99.90
51035;DHT22;37062;52.546;13.230;2022-08-26T08:33:32;38.80;99.90
51035;DHT22;37062;52.546;13.230;2022-08-26T08:36:04;39.00;99.90
51035;DHT22;37062;52.546;13.230;2022-08-26T08:38:32;38.80;99.90
51035;DHT22;37062;52.546;13.230;2022-08-26T08:41:02;38.50;99.90
51035;DHT22;37062;52.546;13.230;2022-08-26T08:43:32;38.60;99.90
51035;DHT22;37062;52.546;13.230;2022-08-26T08:46:11;38.50;99.90
51035;DHT22;37062;52.546;13.230;2022-08-26T08:48:42;38.50;99.90
51035;DHT22;37062;52.546;13.230;2022-08-26T08:51:17;38.80;99.90
51035;DHT22;37062;52.546;13.230;2022-08-26T08:53:48;39.10;99.90
51035;DHT22;37062;52.546;13.230;2022-08-26T08:56:20;38.80;99.90
51035;DHT22;37062;52.546;13.230;2022-08-26T08:58:52;38.40;99.90
51035;DHT22;37062;52.546;13.230;2022-08-26T09:01:34;38.20;99.90
51035;DHT22;37062;52.546;13.230;2022-08-26T09:04:15;38.30;99.90
51035;DHT22;37062;52.546;13.230;2022-08-26T09:06:44;38.30;99.90
51035;DHT22;37062;52.546;13.230;2022-08-26T09:09:19;38.40;99.90
51035;DHT22;37062;52.546;13.230;2022-08-26T09:11:48;38.40;99.90
51035;DHT22;37062;52.546;13.230;2022-08-26T09:14:15;38.50;99.90
51035;DHT22;37062;52.546;13.230;2022-08-26T09:16:49;38.30;99.90
51035;DHT22;37062;52.546;13.230;2022-08-26T09:19:25;38.00;99.90
51035;DHT22;37062;52.546;13.230;2022-08-26T09:21:56;37.70;99.90
51035;DHT22;37062;52.546;13.230;2022-08-26T09:24:24;37.30;99.90
51035;DHT22;37062;52.546;13.230;2022-08-26T09:26:52;37.00;99.90
51035;DHT22;37062;52.546;13.230;2022-08-26T09:29:25;36.30;99.90
51035;DHT22;37062;52.546;13.230;2022-08-26T09:32:15;35.60;99.90
51035;DHT22;37062;52.546;13.230;2022-08-26T09:34:53;35.10;99.90
51035;DHT22;37062;52.546;13.230;2022-08-26T09:37:40;34.40;99.90
51035;DHT22;37062;52.546;13.230;2022-08-26T09:40:25;34.30;99.90
51035;DHT22;37062;52.546;13.230;2022-08-26T09:43:08;34.10;99.90
51035;DHT22;37062;52.546;13.230;2022-08-26T09:45:37;33.80;99.90
51035;DHT22;37062;52.546;13.230;2022-08-26T09:48:07;33.70;99.90
51035;DHT22;37062;52.546;13.230;2022-08-26T09:50:36;33.70;99.90
51035;DHT22;37062;52.546;13.230;2022-08-26T09:53:08;33.30;99.90
51035;DHT22;37062;52.546;13.230;2022-08-26T09:55:42;32.90;99.90
51035;DHT22;37062;52.546;13.230;2022-08-26T09:58:13;32.80;99.90
51035;DHT22;37062;52.546;13.230;2022-08-26T10:00:42;32.70;99.90
51035;DHT22;37062;52.546;13.230;2022-08-26T10:03:25;32.60;99.90
51035;DHT22;37062;52.546;13.230;2022-08-26T10:05:58;32.70;99.90
51035;DHT22;37062;52.546;13.230;2022-08-26T10:08:29;32.80;99.90
51035;DHT22;37062;52.546;13.230;2022-08-26T10:10:59;33.10;99.90
51035;DHT22;37062;52.546;13.230;2022-08-26T10:13:33;33.50;99.90
51035;DHT22;37062;52.546;13.230;2022-08-26T10:16:10;33.70;99.90
51035;DHT22;37062;52.546;13.230;2022-08-26T10:18:43;33.70;99.90
51035;DHT22;37062;52.546;13.230;2022-08-26T10:21:14;33.80;99.90
51035;DHT22;37062;52.546;13.230;2022-08-26T10:23:47;33.70;99.90
51035;DHT22;37062;52.546;13.230;2022-08-26T10:26:20;33.20;99.90
51035;DHT22;37062;52.546;13.230;2022-08-26T10:28:53;33.00;99.90
51035;DHT22;37062;52.546;13.230;2022-08-26T10:31:26;32.80;99.90
51035;DHT22;37062;52.546;13.230;2022-08-26T10:33:56;33.00;99.90
51035;DHT22;37062;52.546;13.230;2022-08-26T10:36:27;33.20;99.90
51035;DHT22;37062;52.546;13.230;2022-08-26T10:39:20;33.20;99.90
51035;DHT22;37062;52.546;13.230;2022-08-26T10:41:55;33.20;99.90
51035;DHT22;37062;52.546;13.230;2022-08-26T10:44:24;33.10;99.90
51035;DHT22;37062;52.546;13.230;2022-08-26T10:46:58;33.00;99.90
51035;DHT22;37062;52.546;13.230;2022-08-26T10:49:29;33.00;99.90
51035;DHT22;37062;52.546;13.230;2022-08-26T10:52:01;33.00;99.90
51035;DHT22;37062;52.546;13.230;2022-08-26T10:54:37;32.80;99.90
51035;DHT22;37062;52.546;13.230;2022-08-26T10:57:12;32.40;99.90
51035;DHT22;37062;52.546;13.230;2022-08-26T10:59:55;32.30;99.90
51035;DHT22;37062;52.546;13.230;2022-08-26T11:02:29;32.00;99.90
51035;DHT22;37062;52.546;13.230;2022-08-26T11:05:00;32.10;99.90
51035;DHT22;37062;52.546;13.230;2022-08-26T11:07:35;32.10;99.90
51035;DHT22;37062;52.546;13.230;2022-08-26T11:10:07;32.20;99.90
51035;DHT22;37062;52.546;13.230;2022-08-26T11:12:56;32.30;99.90
51035;DHT22;37062;52.546;13.230;2022-08-26T11:18:38;32.60;99.90
51035;DHT22;37062;52.546;13.230;2022-08-26T11:24:38;32.90;99.90
51035;DHT22;37062;52.546;13.230;2022-08-26T11:27:08;33.00;99.90
51035;DHT22;37062;52.546;13.230;2022-08-26T11:29:58;32.60;99.90
51035;DHT22;37062;52.546;13.230;2022-08-26T11:32:46;31.50;99.90
51035;DHT22;37062;52.546;13.230;2022-08-26T11:35:46;30.70;99.90
51035;DHT22;37062;52.546;13.230;2022-08-26T11:38:21;30.10;99.90
51035;DHT22;37062;52.546;13.230;2022-08-26T11:41:12;29.70;99.90
51035;DHT22;37062;52.546;13.230;2022-08-26T11:43:43;29.40;99.90
51035;DHT22;37062;52.546;13.230;2022-08-26T11:46:22;29.20;99.90
51035;DHT22;37062;52.546;13.230;2022-08-26T11:48:50;28.90;99.90
51035;DHT22;37062;52.546;13.230;2022-08-26T11:51:25;28.50;99.90
51035;DHT22;37062;52.546;13.230;2022-08-26T11:54:08;28.30;99.90
51035;DHT22;37062;52.546;13.230;2022-08-26T11:56:39;28.00;99.90
51035;DHT22;37062;52.546;13.230;2022-08-26T11:59:08;27.60;99.90
51035;DHT22;37062;52.546;13.230;2022-08-26T12:01:38;27.30;99.90
51035;DHT22;37062;52.546;13.230;2022-08-26T12:04:09;27.10;99.90
51035;DHT22;37062;52.546;13.230;2022-08-26T12:06:43;27.10;99.90
51035;DHT22;37062;52.546;13.230;2022-08-26T12:09:18;27.00;99.90
51035;DHT22;37062;52.546;13.230;2022-08-26T12:11:48;27.00;99.90
51035;DHT22;37062;52.546;13.230;2022-08-26T12:14:18;26.90;99.90
51035;DHT22;37062;52.546;13.230;2022-08-26T12:16:46;27.00;99.90
51035;DHT22;37062;52.546;13.230;2022-08-26T12:19:21;26.90;99.90
51035;DHT22;37062;52.546;13.230;2022-08-26T12:21:49;26.70;99.90
51035;DHT22;37062;52.546;13.230;2022-08-26T12:24:17;26.50;99.90
51035;DHT22;37062;52.546;13.230;2022-08-26T12:26:47;26.40;99.90
51035;DHT22;37062;52.546;13.230;2022-08-26T12:29:23;26.30;99.90
51035;DHT22;37062;52.546;13.230;2022-08-26T12:31:51;26.10;99.90
51035;DHT22;37062;52.546;13.230;2022-08-26T12:34:32;25.40;99.90
51035;DHT22;37062;52.546;13.230;2022-08-26T12:37:00;24.70;99.90
51035;DHT22;37062;52.546;13.230;2022-08-26T12:39:29;24.50;99.90
51035;DHT22;37062;52.546;13.230;2022-08-26T12:42:01;24.40;99.90
51035;DHT22;37062;52.546;13.230;2022-08-26T12:44:41;24.30;99.90
51035;DHT22;37062;52.546;13.230;2022-08-26T12:47:11;24.30;99.90
51035;DHT22;37062;52.546;13.230;2022-08-26T12:49:43;24.40;99.90
51035;DHT22;37062;52.546;13.230;2022-08-26T12:52:21;24.40;99.90
51035;DHT22;37062;52.546;13.230;2022-08-26T12:54:56;24.50;99.90
51035;DHT22;37062;52.546;13.230;2022-08-26T12:57:32;24.60;99.90
51035;DHT22;37062;52.546;13.230;2022-08-26T13:03:30;24.70;99.90
51035;DHT22;37062;52.546;13.230;2022-08-26T13:06:09;24.70;99.90
51035;DHT22;37062;52.546;13.230;2022-08-26T13:08:38;24.60;99.90
51035;DHT22;37062;52.546;13.230;2022-08-26T13:11:12;24.60;99.90
51035;DHT22;37062;52.546;13.230;2022-08-26T13:13:41;24.50;99.90
51035;DHT22;37062;52.546;13.230;2022-08-26T13:16:09;24.50;99.90
51035;DHT22;37062;52.546;13.230;2022-08-26T13:18:37;24.40;99.90
51035;DHT22;37062;52.546;13.230;2022-08-26T13:21:10;24.30;99.90
51035;DHT22;37062;52.546;13.230;2022-08-26T13:23:38;24.30;99.90
51035;DHT22;37062;52.546;13.230;2022-08-26T13:26:05;24.20;99.90
51035;DHT22;37062;52.546;13.230;2022-08-26T13:28:34;24.20;99.90
51035;DHT22;37062;52.546;13.230;2022-08-26T13:31:06;24.20;99.90
51035;DHT22;37062;52.546;13.230;2022-08-26T13:33:34;24.20;99.90
51035;DHT22;37062;52.546;13.230;2022-08-26T13:36:06;24.20;99.90
51035;DHT22;37062;52.546;13.230;2022-08-26T13:38:33;24.10;99.90
51035;DHT22;37062;52.546;13.230;2022-08-26T13:41:04;24.00;99.90
51035;DHT22;37062;52.546;13.230;2022-08-26T13:43:32;24.00;99.90
51035;DHT22;37062;52.546;13.230;2022-08-26T13:46:03;23.80;99.90
51035;DHT22;37062;52.546;13.230;2022-08-26T13:48:32;23.80;99.90
51035;DHT22;37062;52.546;13.230;2022-08-26T13:51:03;23.80;99.90
51035;DHT22;37062;52.546;13.230;2022-08-26T13:53:31;23.80;99.90
51035;DHT22;37062;52.546;13.230;2022-08-26T13:56:00;23.70;99.90
51035;DHT22;37062;52.546;13.230;2022-08-26T13:58:29;23.70;99.90
51035;DHT22;37062;52.546;13.230;2022-08-26T14:00:57;23.60;99.90
51035;DHT22;37062;52.546;13.230;2022-08-26T14:03:24;23.60;99.90
51035;DHT22;37062;52.546;13.230;2022-08-26T14:05:53;23.60;99.90
51035;DHT22;37062;52.546;13.230;2022-08-26T14:08:21;23.60;99.90
51035;DHT22;37062;52.546;13.230;2022-08-26T14:10:49;23.60;99.90
51035;DHT22;37062;52.546;13.230;2022-08-26T14:13:16;23.60;99.90
51035;DHT22;37062;52.546;13.230;2022-08-26T14:15:44;23.60;99.90
51035;DHT22;37062;52.546;13.230;2022-08-26T14:18:13;23.50;99.90
51035;DHT22;37062;52.546;13.230;2022-08-26T14:20:47;23.40;99.90
51035;DHT22;37062;52.546;13.230;2022-08-26T14:23:16;23.30;99.90
51035;DHT22;37062;52.546;13.230;2022-08-26T14:25:44;23.20;99.90
51035;DHT22;37062;52.546;13.230;2022-08-26T14:28:11;23.20;99.90
51035;DHT22;37062;52.546;13.230;2022-08-26T14:30:41;23.10;99.90
51035;DHT22;37062;52.546;13.230;2022-08-26T14:33:11;23.10;99.90
51035;DHT22;37062;52.546;13.230;2022-08-26T14:35:39;23.00;99.90
51035;DHT22;37062;52.546;13.230;2022-08-26T14:38:07;23.00;99.90
51035;DHT22;37062;52.546;13.230;2022-08-26T14:40:35;23.10;99.90
51035;DHT22;37062;52.546;13.230;2022-08-26T14:43:05;23.10;99.90
51035;DHT22;37062;52.546;13.230;2022-08-26T14:45:36;23.00;99.90
51035;DHT22;37062;52.546;13.230;2022-08-26T14:48:04;23.00;99.90
51035;DHT22;37062;52.546;13.230;2022-08-26T14:50:32;22.90;99.90
51035;DHT22;37062;52.546;13.230;2022-08-26T14:53:00;22.70;99.90
51035;DHT22;37062;52.546;13.230;2022-08-26T14:55:46;22.50;99.90
51035;DHT22;37062;52.546;13.230;2022-08-26T14:58:13;22.40;99.90
51035;DHT22;37062;52.546;13.230;2022-08-26T15:00:42;22.30;99.90
51035;DHT22;37062;52.546;13.230;2022-08-26T15:03:10;22.40;99.90
51035;DHT22;37062;52.546;13.230;2022-08-26T15:05:37;22.40;99.90
51035;DHT22;37062;52.546;13.230;2022-08-26T15:08:10;22.40;99.90
51035;DHT22;37062;52.546;13.230;2022-08-26T15:10:38;22.40;99.90
51035;DHT22;37062;52.546;13.230;2022-08-26T15:13:06;22.40;99.90
51035;DHT22;37062;52.546;13.230;2022-08-26T15:15:34;22.40;99.90
51035;DHT22;37062;52.546;13.230;2022-08-26T15:18:03;22.50;99.90
51035;DHT22;37062;52.546;13.230;2022-08-26T15:20:31;22.50;99.90
51035;DHT22;37062;52.546;13.230;2022-08-26T15:22:58;22.50;99.90
51035;DHT22;37062;52.546;13.230;2022-08-26T15:25:26;22.50;99.90
51035;DHT22;37062;52.546;13.230;2022-08-26T15:27:53;22.50;99.90
51035;DHT22;37062;52.546;13.230;2022-08-26T15:30:22;22.50;99.90
51035;DHT22;37062;52.546;13.230;2022-08-26T15:32:49;22.50;99.90
51035;DHT22;37062;52.546;13.230;2022-08-26T15:35:17;22.40;99.90
51035;DHT22;37062;52.546;13.230;2022-08-26T15:37:44;22.40;99.90
51035;DHT22;37062;52.546;13.230;2022-08-26T15:40:12;22.40;99.90
51035;DHT22;37062;52.546;13.230;2022-08-26T15:42:39;22.30;99.90
51035;DHT22;37062;52.546;13.230;2022-08-26T15:45:07;22.30;99.90